AUA233 LOWW-EDDB
Flight info
| Callsign | AUA233 |
|---|---|
| Flight time | N/A |
| Altitude | 30000 |
| Route | LANUX2C/29 LANUX DCT VLM DCT BEFRE T204 NUKRO NUKRO1L |
| Aircraft | A320/M-SDE3FGHIRWY/LB1 |
Departure
| Time | 2026-04-25 18:40 |
|---|---|
| Airport | Vienna International Airport (LOWW) |
Arrival
| Time | N/A |
|---|---|
| Airport | Berlin Brandenburg Airport (EDDB) |
| Time | Latitude | Longitude | Altitude | Speed | Heading |
|---|---|---|---|---|---|
| 2026-04-25 18:11 | 48.11845 | 16.56931 | 623 ft | 0 kts | 206° |
| 2026-04-25 18:17 | 48.11862 | 16.56877 | 609 ft | 0 kts | 206° |
| 2026-04-25 18:31 | 48.11863 | 16.56877 | 609 ft | 1 kts | 206° |
| 2026-04-25 18:31 | 48.11884 | 16.56892 | 609 ft | 4 kts | 200° |
| 2026-04-25 18:31 | 48.11910 | 16.56903 | 609 ft | 4 kts | 184° |
| 2026-04-25 18:31 | 48.11933 | 16.56897 | 622 ft | 4 kts | 131° |
| 2026-04-25 18:32 | 48.11937 | 16.56889 | 621 ft | 0 kts | 116° |
| 2026-04-25 18:34 | 48.11929 | 16.56916 | 621 ft | 6 kts | 116° |
| 2026-04-25 18:34 | 48.11906 | 16.56984 | 612 ft | 7 kts | 116° |
| 2026-04-25 18:35 | 48.11885 | 16.57049 | 615 ft | 6 kts | 116° |
| 2026-04-25 18:35 | 48.11868 | 16.57102 | 621 ft | 5 kts | 116° |
| 2026-04-25 18:35 | 48.11855 | 16.57159 | 619 ft | 9 kts | 97° |
| 2026-04-25 18:35 | 48.11838 | 16.57274 | 619 ft | 13 kts | 114° |
| 2026-04-25 18:36 | 48.11783 | 16.57359 | 618 ft | 11 kts | 162° |
| 2026-04-25 18:36 | 48.11710 | 16.57389 | 609 ft | 10 kts | 165° |
| 2026-04-25 18:36 | 48.11642 | 16.57417 | 620 ft | 13 kts | 164° |
| 2026-04-25 18:36 | 48.11546 | 16.57457 | 614 ft | 14 kts | 165° |
| 2026-04-25 18:37 | 48.11459 | 16.57437 | 609 ft | 12 kts | 205° |
| 2026-04-25 18:37 | 48.11382 | 16.57381 | 623 ft | 11 kts | 206° |
| 2026-04-25 18:37 | 48.11358 | 16.57364 | 609 ft | 2 kts | 206° |
| 2026-04-25 18:37 | 48.11330 | 16.57344 | 609 ft | 10 kts | 206° |
| 2026-04-25 18:38 | 48.11267 | 16.57298 | 617 ft | 9 kts | 206° |
| 2026-04-25 18:38 | 48.11213 | 16.57258 | 609 ft | 8 kts | 206° |
| 2026-04-25 18:38 | 48.11159 | 16.57218 | 625 ft | 11 kts | 206° |
| 2026-04-25 18:38 | 48.11090 | 16.57170 | 614 ft | 10 kts | 205° |
| 2026-04-25 18:39 | 48.11051 | 16.57117 | 612 ft | 7 kts | 271° |
| 2026-04-25 18:39 | 48.11096 | 16.56971 | 609 ft | 40 kts | 296° |
| 2026-04-25 18:39 | 48.11328 | 16.56259 | 616 ft | 109 kts | 296° |
| 2026-04-25 18:39 | 48.11781 | 16.54869 | 646 ft | 160 kts | 296° |
| 2026-04-25 18:40 | 48.12239 | 16.53257 | 1096 ft | 175 kts | 279° |
| 2026-04-25 18:40 | 48.12193 | 16.51455 | 1866 ft | 177 kts | 264° |
| 2026-04-25 18:40 | 48.11967 | 16.49530 | 2372 ft | 197 kts | 263° |
| 2026-04-25 18:40 | 48.11734 | 16.47389 | 2832 ft | 220 kts | 270° |
| 2026-04-25 18:41 | 48.11842 | 16.44988 | 3340 ft | 241 kts | 278° |
| 2026-04-25 18:41 | 48.12074 | 16.42403 | 4128 ft | 252 kts | 280° |
| 2026-04-25 18:41 | 48.12342 | 16.39776 | 5048 ft | 257 kts | 281° |
| 2026-04-25 18:41 | 48.12625 | 16.37086 | 6046 ft | 260 kts | 281° |
| 2026-04-25 18:42 | 48.12913 | 16.34371 | 6909 ft | 265 kts | 281° |
| 2026-04-25 18:42 | 48.13009 | 16.33461 | 7210 ft | 266 kts | 281° |
| 2026-04-25 18:42 | 48.13494 | 16.28900 | 8807 ft | 269 kts | 280° |
| 2026-04-25 18:42 | 48.13788 | 16.26122 | 9764 ft | 271 kts | 280° |
| 2026-04-25 18:43 | 48.14226 | 16.23374 | 10600 ft | 273 kts | 292° |
| 2026-04-25 18:43 | 48.15190 | 16.20917 | 11407 ft | 278 kts | 308° |
| 2026-04-25 18:43 | 48.16718 | 16.18887 | 11756 ft | 305 kts | 327° |
| 2026-04-25 18:43 | 48.18661 | 16.17405 | 11999 ft | 329 kts | 331° |
| 2026-04-25 18:44 | 48.20814 | 16.15832 | 12303 ft | 348 kts | 331° |
| 2026-04-25 18:44 | 48.23017 | 16.14225 | 12960 ft | 355 kts | 331° |
| 2026-04-25 18:44 | 48.25246 | 16.12589 | 13712 ft | 359 kts | 331° |
| 2026-04-25 18:44 | 48.27497 | 16.10925 | 14372 ft | 363 kts | 331° |
| 2026-04-25 18:45 | 48.29771 | 16.09236 | 15028 ft | 366 kts | 330° |
| 2026-04-25 18:45 | 48.32064 | 16.07529 | 15670 ft | 369 kts | 331° |
| 2026-04-25 18:45 | 48.34380 | 16.05809 | 16328 ft | 372 kts | 331° |
| 2026-04-25 18:45 | 48.36705 | 16.04085 | 16946 ft | 375 kts | 331° |
| 2026-04-25 18:46 | 48.39060 | 16.02333 | 17573 ft | 379 kts | 330° |
| 2026-04-25 18:46 | 48.41434 | 16.00564 | 18203 ft | 382 kts | 330° |
| 2026-04-25 18:46 | 48.43817 | 15.98785 | 18750 ft | 384 kts | 330° |
| 2026-04-25 18:46 | 48.46250 | 15.96963 | 19278 ft | 386 kts | 330° |
| 2026-04-25 18:47 | 48.47844 | 15.95768 | 19615 ft | 388 kts | 330° |
| 2026-04-25 18:47 | 48.50271 | 15.93947 | 20118 ft | 390 kts | 330° |
| 2026-04-25 18:47 | 48.52708 | 15.92118 | 20642 ft | 393 kts | 330° |
| 2026-04-25 18:47 | 48.55161 | 15.90276 | 21144 ft | 395 kts | 330° |
| 2026-04-25 18:48 | 48.57627 | 15.88408 | 21643 ft | 397 kts | 329° |
| 2026-04-25 18:48 | 48.60065 | 15.86439 | 22136 ft | 399 kts | 327° |
| 2026-04-25 18:48 | 48.62492 | 15.84369 | 22599 ft | 401 kts | 326° |
| 2026-04-25 18:48 | 48.64909 | 15.82253 | 23066 ft | 403 kts | 326° |
| 2026-04-25 18:49 | 48.67341 | 15.80113 | 23590 ft | 404 kts | 326° |
| 2026-04-25 18:49 | 48.69846 | 15.77916 | 23997 ft | 406 kts | 326° |
| 2026-04-25 18:49 | 48.72303 | 15.75780 | 24376 ft | 409 kts | 327° |
| 2026-04-25 18:49 | 48.74782 | 15.73643 | 24741 ft | 411 kts | 327° |
| 2026-04-25 18:50 | 48.77278 | 15.71501 | 25103 ft | 414 kts | 327° |
| 2026-04-25 18:50 | 48.79790 | 15.69353 | 25474 ft | 416 kts | 327° |
| 2026-04-25 18:50 | 48.82315 | 15.67186 | 25820 ft | 418 kts | 327° |
| 2026-04-25 18:50 | 48.84855 | 15.64998 | 26165 ft | 421 kts | 327° |
| 2026-04-25 18:51 | 48.87404 | 15.62794 | 26498 ft | 423 kts | 327° |
| 2026-04-25 18:51 | 48.89158 | 15.61359 | 26714 ft | 426 kts | 331° |
| 2026-04-25 18:51 | 48.92773 | 15.58950 | 27164 ft | 430 kts | 333° |
| 2026-04-25 18:51 | 48.95522 | 15.57142 | 27494 ft | 431 kts | 333° |
| 2026-04-25 18:52 | 48.98283 | 15.55323 | 27809 ft | 433 kts | 334° |
| 2026-04-25 18:52 | 49.01058 | 15.53484 | 28108 ft | 436 kts | 334° |
| 2026-04-25 18:52 | 49.03879 | 15.51607 | 28401 ft | 438 kts | 334° |
| 2026-04-25 18:52 | 49.06709 | 15.49717 | 28798 ft | 437 kts | 334° |
| 2026-04-25 18:53 | 49.09450 | 15.47884 | 29250 ft | 436 kts | 334° |
| 2026-04-25 18:53 | 49.12218 | 15.46039 | 29690 ft | 426 kts | 334° |
| 2026-04-25 18:53 | 49.14862 | 15.44338 | 29951 ft | 399 kts | 334° |
| 2026-04-25 18:53 | 49.17322 | 15.42760 | 30007 ft | 369 kts | 334° |
| 2026-04-25 18:54 | 49.21829 | 15.39782 | 27871 ft | 353 kts | 333° |
| 2026-04-25 18:54 | 49.24122 | 15.38221 | 26212 ft | 359 kts | 333° |
| 2026-04-25 18:54 | 49.26414 | 15.36653 | 24641 ft | 362 kts | 333° |
| 2026-04-25 18:55 | 49.28721 | 15.35086 | 23056 ft | 363 kts | 333° |
| 2026-04-25 18:55 | 49.31032 | 15.33532 | 21340 ft | 363 kts | 333° |
| 2026-04-25 18:55 | 49.33344 | 15.31982 | 19698 ft | 360 kts | 333° |
| 2026-04-25 18:55 | 49.35667 | 15.30421 | 18142 ft | 363 kts | 333° |
| 2026-04-25 18:56 | 49.37980 | 15.28830 | 16731 ft | 364 kts | 332° |
| 2026-04-25 18:56 | 49.40315 | 15.27214 | 15105 ft | 371 kts | 333° |
| 2026-04-25 18:56 | 49.42672 | 15.25591 | 13789 ft | 370 kts | 333° |
| 2026-04-25 18:56 | 49.44995 | 15.24008 | 12465 ft | 366 kts | 333° |
| 2026-04-25 18:57 | 49.47319 | 15.22433 | 11253 ft | 359 kts | 333° |
| 2026-04-25 18:57 | 49.49579 | 15.20908 | 10490 ft | 345 kts | 333° |
| 2026-04-25 18:57 | 49.51696 | 15.19481 | 10218 ft | 318 kts | 333° |
| 2026-04-25 18:57 | 49.53021 | 15.18588 | 10126 ft | 299 kts | 333° |
| 2026-04-25 18:58 | 49.55406 | 15.16986 | 10014 ft | 271 kts | 332° |
| 2026-04-25 18:58 | 49.58863 | 15.14722 | 10015 ft | 262 kts | 332° |
| 2026-04-25 18:58 | 49.60462 | 15.13639 | 10018 ft | 245 kts | 332° |
| 2026-04-25 18:59 | 49.63569 | 15.11501 | 10014 ft | 244 kts | 332° |
| 2026-04-25 18:59 | 49.66676 | 15.09368 | 10036 ft | 245 kts | 332° |
| 2026-04-25 19:00 | 49.69788 | 15.07239 | 10024 ft | 245 kts | 334° |
| 2026-04-25 19:00 | 49.71433 | 15.06473 | 10021 ft | 249 kts | 343° |
| 2026-04-25 19:01 | 49.74871 | 15.05464 | 10014 ft | 250 kts | 344° |
| 2026-04-25 19:01 | 49.76555 | 15.04983 | 10015 ft | 250 kts | 344° |
| 2026-04-25 19:01 | 49.78254 | 15.04311 | 10018 ft | 245 kts | 329° |
| 2026-04-25 19:01 | 49.79554 | 15.02691 | 10021 ft | 240 kts | 309° |
| 2026-04-25 19:02 | 49.81657 | 14.98686 | 10014 ft | 241 kts | 315° |
| 2026-04-25 19:02 | 49.82975 | 14.97062 | 10019 ft | 242 kts | 319° |
| 2026-04-25 19:02 | 49.84308 | 14.95474 | 10019 ft | 242 kts | 319° |
| 2026-04-25 19:03 | 49.86096 | 14.93337 | 10017 ft | 242 kts | 319° |
| 2026-04-25 19:03 | 49.88306 | 14.90674 | 10017 ft | 242 kts | 319° |
| 2026-04-25 19:03 | 49.89637 | 14.89067 | 10018 ft | 242 kts | 319° |
| 2026-04-25 19:04 | 49.92293 | 14.85850 | 10026 ft | 242 kts | 319° |
| 2026-04-25 19:04 | 49.93615 | 14.84238 | 10016 ft | 242 kts | 319° |
| 2026-04-25 19:05 | 49.96265 | 14.80979 | 9754 ft | 241 kts | 319° |
| 2026-04-25 19:05 | 49.98886 | 14.77758 | 9487 ft | 240 kts | 319° |
| 2026-04-25 19:05 | 50.00192 | 14.76157 | 9348 ft | 239 kts | 319° |
| 2026-04-25 19:06 | 50.01525 | 14.74521 | 8936 ft | 245 kts | 319° |
| 2026-04-25 19:06 | 50.04135 | 14.71287 | 8431 ft | 236 kts | 319° |
| 2026-04-25 19:06 | 50.05411 | 14.69704 | 8112 ft | 234 kts | 319° |
| 2026-04-25 19:07 | 50.07965 | 14.66551 | 7443 ft | 231 kts | 319° |
| 2026-04-25 19:07 | 50.09221 | 14.65004 | 7117 ft | 230 kts | 319° |
| 2026-04-25 19:08 | 50.11837 | 14.61780 | 5861 ft | 250 kts | 320° |
| 2026-04-25 19:08 | 50.13223 | 14.60066 | 5298 ft | 255 kts | 320° |
| 2026-04-25 19:09 | 50.17191 | 14.55181 | 4852 ft | 225 kts | 319° |
| 2026-04-25 19:09 | 50.17590 | 14.54689 | 4813 ft | 223 kts | 319° |
| 2026-04-25 19:09 | 50.18340 | 14.49942 | 4272 ft | 199 kts | 251° |
| 2026-04-25 19:10 | 50.17763 | 14.48022 | 4021 ft | 191 kts | 250° |
| 2026-04-25 19:10 | 50.17198 | 14.46148 | 3798 ft | 182 kts | 251° |
| 2026-04-25 19:10 | 50.16671 | 14.44380 | 3543 ft | 178 kts | 251° |
| 2026-04-25 19:10 | 50.16159 | 14.42658 | 3303 ft | 172 kts | 251° |
| 2026-04-25 19:11 | 50.15674 | 14.41034 | 3093 ft | 157 kts | 252° |
| 2026-04-25 19:11 | 50.15234 | 14.39565 | 2883 ft | 140 kts | 252° |
| 2026-04-25 19:11 | 50.14837 | 14.38222 | 2645 ft | 137 kts | 256° |
| 2026-04-25 19:11 | 50.14427 | 14.36864 | 2485 ft | 134 kts | 253° |
| 2026-04-25 19:12 | 50.14046 | 14.35558 | 2340 ft | 131 kts | 253° |